createdAt,value
2022-10-31T00:00:05.658Z,29.40
2022-10-31T00:00:15.900Z,30.60
2022-10-31T00:00:25.830Z,32.90
2022-10-31T00:00:35.910Z,36.50
2022-10-31T00:00:46.054Z,36.80
2022-10-31T00:00:56.055Z,33.90
2022-10-31T00:01:06.140Z,33.10
2022-10-31T00:01:16.200Z,31.50
2022-10-31T00:01:26.251Z,32.80
2022-10-31T00:01:36.400Z,35.50
2022-10-31T00:01:46.501Z,34.80
2022-10-31T00:01:56.658Z,30.00
2022-10-31T00:02:06.789Z,26.80
2022-10-31T00:02:16.942Z,26.60
2022-10-31T00:02:27.088Z,29.70
2022-10-31T00:02:37.229Z,31.30
2022-10-31T00:02:47.189Z,32.80
2022-10-31T00:02:57.591Z,34.00
2022-10-31T00:03:07.359Z,35.00
2022-10-31T00:03:17.429Z,37.10
2022-10-31T00:03:27.480Z,37.00
2022-10-31T00:03:37.540Z,36.30
2022-10-31T00:03:47.591Z,35.30
2022-10-31T00:03:57.690Z,33.10
2022-10-31T00:04:07.739Z,35.30
2022-10-31T00:04:17.811Z,34.40
2022-10-31T00:04:27.860Z,36.50
2022-10-31T00:04:37.930Z,36.50
2022-10-31T00:04:47.971Z,38.60
2022-10-31T00:04:58.079Z,36.70
2022-10-31T00:05:08.119Z,34.30
2022-10-31T00:05:18.170Z,32.80
2022-10-31T00:05:28.262Z,32.90
2022-10-31T00:05:38.310Z,30.80
2022-10-31T00:05:48.392Z,33.90
2022-10-31T00:05:58.482Z,33.90
2022-10-31T00:06:08.522Z,35.60
2022-10-31T00:06:18.570Z,34.00
2022-10-31T00:06:28.609Z,33.90
2022-10-31T00:06:38.660Z,34.40
2022-10-31T00:06:48.710Z,31.50
2022-10-31T00:06:58.759Z,29.90
2022-10-31T00:07:08.800Z,31.10
2022-10-31T00:07:18.859Z,30.30
2022-10-31T00:07:28.901Z,34.30
2022-10-31T00:07:38.941Z,31.80
2022-10-31T00:07:48.995Z,33.80
2022-10-31T00:07:59.040Z,30.40
2022-10-31T00:08:09.091Z,30.40
2022-10-31T00:08:19.128Z,27.80
2022-10-31T00:08:29.190Z,28.80
2022-10-31T00:08:39.259Z,29.60
2022-10-31T00:08:49.330Z,30.90
2022-10-31T00:08:59.409Z,30.80
2022-10-31T00:09:09.552Z,29.30
2022-10-31T00:09:19.639Z,28.90
2022-10-31T00:09:29.678Z,29.40
2022-10-31T00:09:39.723Z,33.00
2022-10-31T00:09:49.760Z,34.00
2022-10-31T00:09:59.811Z,34.40
2022-10-31T00:10:09.861Z,30.20
2022-10-31T00:10:19.912Z,30.20
2022-10-31T00:10:29.958Z,27.80
2022-10-31T00:10:39.998Z,28.80
2022-10-31T00:10:50.031Z,28.50
2022-10-31T00:11:00.085Z,30.70
2022-10-31T00:11:10.190Z,30.90
2022-10-31T00:11:20.230Z,31.80
2022-10-31T00:11:30.279Z,32.40
2022-10-31T00:11:40.419Z,32.00
2022-10-31T00:11:50.460Z,31.90
2022-10-31T00:12:00.500Z,33.10
2022-10-31T00:12:10.589Z,33.90
2022-10-31T00:12:20.648Z,36.90
2022-10-31T00:12:30.698Z,34.90
2022-10-31T00:12:40.740Z,35.50
2022-10-31T00:12:50.808Z,31.00
2022-10-31T00:13:01.270Z,29.60
2022-10-31T00:13:10.951Z,27.50
2022-10-31T00:13:31.045Z,29.10
2022-10-31T00:13:41.100Z,30.70
2022-10-31T00:13:51.183Z,31.80
2022-10-31T00:14:01.250Z,34.10
2022-10-31T00:14:11.318Z,34.20
2022-10-31T00:14:21.380Z,34.20
2022-10-31T00:14:31.440Z,33.50
2022-10-31T00:14:41.457Z,32.60
2022-10-31T00:14:51.531Z,32.50
2022-10-31T00:15:01.597Z,30.90
2022-10-31T00:15:11.680Z,29.70
2022-10-31T00:15:21.750Z,30.50
2022-10-31T00:15:31.810Z,32.10
2022-10-31T00:15:41.860Z,34.20
2022-10-31T00:15:51.919Z,32.50
2022-10-31T00:16:01.978Z,32.30
2022-10-31T00:16:12.029Z,31.40
2022-10-31T00:16:22.110Z,28.80
2022-10-31T00:16:32.174Z,27.30
2022-10-31T00:16:42.229Z,26.50
2022-10-31T00:16:52.261Z,29.40
2022-10-31T00:17:02.360Z,33.20
2022-10-31T00:17:12.468Z,33.40
2022-10-31T00:17:22.522Z,31.00
2022-10-31T00:17:32.570Z,31.00
2022-10-31T00:17:42.712Z,29.50
2022-10-31T00:17:52.778Z,28.10
2022-10-31T00:18:02.930Z,28.20
2022-10-31T00:18:12.959Z,30.40
2022-10-31T00:18:23.029Z,29.80
2022-10-31T00:18:33.070Z,30.50
2022-10-31T00:18:43.120Z,28.90
2022-10-31T00:18:53.186Z,29.60
2022-10-31T00:19:03.260Z,29.00
2022-10-31T00:19:13.311Z,31.70
2022-10-31T00:19:23.431Z,32.80
2022-10-31T00:19:33.499Z,33.60
2022-10-31T00:19:43.568Z,33.00
2022-10-31T00:19:53.630Z,33.00
2022-10-31T00:20:03.780Z,33.00
2022-10-31T00:20:13.832Z,32.80
2022-10-31T00:20:23.900Z,31.60
2022-10-31T00:20:33.979Z,29.00
2022-10-31T00:20:44.138Z,30.90
2022-10-31T00:20:54.200Z,31.20
2022-10-31T00:21:04.259Z,35.90
2022-10-31T00:21:14.315Z,35.50
2022-10-31T00:21:24.358Z,38.50
2022-10-31T00:21:34.409Z,39.30
2022-10-31T00:21:44.488Z,38.00
2022-10-31T00:21:54.538Z,35.80
2022-10-31T00:22:04.591Z,32.50
2022-10-31T00:22:14.650Z,30.50
2022-10-31T00:22:24.699Z,32.50
2022-10-31T00:22:34.755Z,31.40
2022-10-31T00:22:44.799Z,30.70
2022-10-31T00:22:54.889Z,29.30
2022-10-31T00:23:04.949Z,29.50
2022-10-31T00:23:14.989Z,33.20
2022-10-31T00:23:25.059Z,34.60
2022-10-31T00:23:35.141Z,34.80
2022-10-31T00:23:45.188Z,31.90
2022-10-31T00:23:55.256Z,33.80
2022-10-31T00:24:05.299Z,34.10
2022-10-31T00:24:15.339Z,29.30
2022-10-31T00:24:25.409Z,27.20
2022-10-31T00:24:35.479Z,27.70
2022-10-31T00:24:45.539Z,31.20
2022-10-31T00:24:55.587Z,32.40
2022-10-31T00:25:05.660Z,31.90
2022-10-31T00:25:15.709Z,32.30
2022-10-31T00:25:25.769Z,32.10
2022-10-31T00:25:35.821Z,30.90
2022-10-31T00:25:45.880Z,29.50
2022-10-31T00:25:55.940Z,28.40
2022-10-31T00:26:05.996Z,25.50
2022-10-31T00:26:16.077Z,25.40
2022-10-31T00:26:26.129Z,27.30
2022-10-31T00:26:36.327Z,29.80
2022-10-31T00:26:46.218Z,28.90
2022-10-31T00:26:56.276Z,27.50
2022-10-31T00:27:06.321Z,28.90
2022-10-31T00:27:16.378Z,32.80
2022-10-31T00:27:26.430Z,32.50
2022-10-31T00:27:36.489Z,32.30
2022-10-31T00:27:46.629Z,29.70
2022-10-31T00:27:56.914Z,29.90
2022-10-31T00:28:06.865Z,27.50
2022-10-31T00:28:16.905Z,29.40
2022-10-31T00:28:26.969Z,28.10
2022-10-31T00:28:37.039Z,31.10
2022-10-31T00:28:47.094Z,28.00
2022-10-31T00:28:57.160Z,27.30
2022-10-31T00:29:07.221Z,27.00
2022-10-31T00:29:17.291Z,29.20
2022-10-31T00:29:27.353Z,28.50
2022-10-31T00:29:37.499Z,26.20
2022-10-31T00:29:47.609Z,24.50
2022-10-31T00:29:57.668Z,27.20
2022-10-31T00:30:07.816Z,27.90
2022-10-31T00:30:17.868Z,28.70
2022-10-31T00:30:27.919Z,28.80
2022-10-31T00:30:37.978Z,30.20
2022-10-31T00:30:48.037Z,30.30
2022-10-31T00:30:58.100Z,28.20
2022-10-31T00:31:08.169Z,26.90
2022-10-31T00:31:18.229Z,25.60
2022-10-31T00:31:28.288Z,28.40
2022-10-31T00:31:38.358Z,28.20
2022-10-31T00:31:48.401Z,30.50
2022-10-31T00:31:58.459Z,27.20
2022-10-31T00:32:08.509Z,27.90
2022-10-31T00:32:18.559Z,26.40
2022-10-31T00:32:28.611Z,30.80
2022-10-31T00:32:38.680Z,30.20
2022-10-31T00:32:48.730Z,33.00
2022-10-31T00:32:59.244Z,30.20
2022-10-31T00:33:08.952Z,30.20
2022-10-31T00:33:19.026Z,25.10
2022-10-31T00:33:29.085Z,24.50
2022-10-31T00:33:39.187Z,24.00
2022-10-31T00:33:49.279Z,25.60
2022-10-31T00:33:59.343Z,25.60
2022-10-31T00:34:09.408Z,25.50
2022-10-31T00:34:19.468Z,25.70
2022-10-31T00:34:29.558Z,25.80
2022-10-31T00:34:39.621Z,25.20
2022-10-31T00:34:49.698Z,26.20
2022-10-31T00:34:59.756Z,26.20
2022-10-31T00:35:09.849Z,28.90
2022-10-31T00:35:19.913Z,27.20
2022-10-31T00:35:29.959Z,28.80
2022-10-31T00:35:40.021Z,28.00
2022-10-31T00:35:50.086Z,29.60
2022-10-31T00:36:00.198Z,26.70
2022-10-31T00:36:10.230Z,26.40
2022-10-31T00:36:20.299Z,25.60
2022-10-31T00:36:30.381Z,27.70
2022-10-31T00:36:40.661Z,27.40
2022-10-31T00:36:50.540Z,27.50
2022-10-31T00:37:00.649Z,26.30
2022-10-31T00:37:10.709Z,25.40
2022-10-31T00:37:20.768Z,24.00
2022-10-31T00:37:31.029Z,26.10
2022-10-31T00:37:40.915Z,27.20
2022-10-31T00:37:50.989Z,28.70
2022-10-31T00:38:01.074Z,25.60
2022-10-31T00:38:11.129Z,26.90
2022-10-31T00:38:21.198Z,26.80
2022-10-31T00:38:31.269Z,29.80
2022-10-31T00:38:41.408Z,27.10
2022-10-31T00:38:51.459Z,31.10
2022-10-31T00:39:01.538Z,28.40
2022-10-31T00:39:11.608Z,32.10
2022-10-31T00:39:21.710Z,30.70
2022-10-31T00:39:31.777Z,31.90
2022-10-31T00:39:41.865Z,30.60
2022-10-31T00:39:51.965Z,30.40
2022-10-31T00:40:02.008Z,32.20
2022-10-31T00:40:12.101Z,33.10
2022-10-31T00:40:22.161Z,31.60
2022-10-31T00:40:32.218Z,30.70
2022-10-31T00:40:42.279Z,29.30
2022-10-31T00:40:52.338Z,28.10
2022-10-31T00:41:02.391Z,30.20
2022-10-31T00:41:12.449Z,28.80
2022-10-31T00:41:22.532Z,30.20
2022-10-31T00:41:32.586Z,26.60
2022-10-31T00:41:42.672Z,27.50
2022-10-31T00:41:52.739Z,28.50
2022-10-31T00:42:02.816Z,29.20
2022-10-31T00:42:12.887Z,27.60
2022-10-31T00:42:22.946Z,26.30
2022-10-31T00:42:33.019Z,26.30
2022-10-31T00:42:43.192Z,29.40
2022-10-31T00:42:53.357Z,27.80
2022-10-31T00:43:04.008Z,27.40
2022-10-31T00:43:13.582Z,24.90
2022-10-31T00:43:23.655Z,25.60
2022-10-31T00:43:33.700Z,28.20
2022-10-31T00:43:43.830Z,30.80
2022-10-31T00:43:53.919Z,29.20
2022-10-31T00:44:03.986Z,28.50
2022-10-31T00:44:14.029Z,28.30
2022-10-31T00:44:24.148Z,30.20
2022-10-31T00:44:34.209Z,30.30
2022-10-31T00:44:44.317Z,27.60
2022-10-31T00:44:54.376Z,27.50
2022-10-31T00:45:04.468Z,25.70
2022-10-31T00:45:14.497Z,24.30
2022-10-31T00:45:24.593Z,29.80
2022-10-31T00:45:34.659Z,30.60
2022-10-31T00:45:44.720Z,32.70
2022-10-31T00:45:54.769Z,28.80
2022-10-31T00:46:04.825Z,29.70
2022-10-31T00:46:14.878Z,29.20
2022-10-31T00:46:24.955Z,26.40
2022-10-31T00:46:35.018Z,24.30
2022-10-31T00:46:45.087Z,24.60
2022-10-31T00:46:55.130Z,25.20
2022-10-31T00:47:05.196Z,26.60
2022-10-31T00:47:15.259Z,25.30
2022-10-31T00:47:25.338Z,26.60
2022-10-31T00:47:35.407Z,26.80
2022-10-31T00:47:45.468Z,28.70
2022-10-31T00:47:55.558Z,30.70
2022-10-31T00:48:05.638Z,31.30
2022-10-31T00:48:15.699Z,32.20
2022-10-31T00:48:25.755Z,29.50
2022-10-31T00:48:35.820Z,29.30
2022-10-31T00:48:45.898Z,26.50
2022-10-31T00:48:55.956Z,27.00
2022-10-31T00:49:06.022Z,27.00
2022-10-31T00:49:16.059Z,29.60
2022-10-31T00:49:26.118Z,28.30
2022-10-31T00:49:36.201Z,27.50
2022-10-31T00:49:46.184Z,26.50
2022-10-31T00:49:56.218Z,29.80
2022-10-31T00:50:06.267Z,31.00
2022-10-31T00:50:16.308Z,30.50
2022-10-31T00:50:26.366Z,26.30
2022-10-31T00:50:36.500Z,25.80
2022-10-31T00:50:46.569Z,27.00
2022-10-31T00:50:56.637Z,27.00
2022-10-31T00:51:06.699Z,27.20
2022-10-31T00:51:16.746Z,27.50
2022-10-31T00:51:26.810Z,29.20
2022-10-31T00:51:36.878Z,33.50
2022-10-31T00:51:46.920Z,31.20
2022-10-31T00:51:56.988Z,31.20
2022-10-31T00:52:07.038Z,25.40
2022-10-31T00:52:17.098Z,27.00
2022-10-31T00:52:27.156Z,24.80
2022-10-31T00:52:37.281Z,24.60
2022-10-31T00:52:47.348Z,24.50
2022-10-31T00:52:57.467Z,26.20
2022-10-31T00:53:07.529Z,28.20
2022-10-31T00:53:17.589Z,27.70
2022-10-31T00:53:27.677Z,26.60
2022-10-31T00:53:37.741Z,26.40
2022-10-31T00:53:47.778Z,26.10
2022-10-31T00:53:57.840Z,29.10
2022-10-31T00:54:08.059Z,29.40
2022-10-31T00:54:17.938Z,31.00
2022-10-31T00:54:27.989Z,27.20
2022-10-31T00:54:38.056Z,24.50
2022-10-31T00:54:48.249Z,24.80
2022-10-31T00:54:58.128Z,27.80
2022-10-31T00:55:08.177Z,31.10
2022-10-31T00:55:18.246Z,28.70
2022-10-31T00:55:28.298Z,27.30
2022-10-31T00:55:38.366Z,28.30
2022-10-31T00:55:48.408Z,28.90
2022-10-31T00:55:58.475Z,27.30
2022-10-31T00:56:08.545Z,26.20
2022-10-31T00:56:18.596Z,28.50
2022-10-31T00:56:28.676Z,28.70
2022-10-31T00:56:38.727Z,28.20
2022-10-31T00:56:48.778Z,25.80
2022-10-31T00:56:58.848Z,25.30
2022-10-31T00:57:08.929Z,23.60
2022-10-31T00:57:18.990Z,23.70
2022-10-31T00:57:29.035Z,26.10
2022-10-31T00:57:39.116Z,28.10
2022-10-31T00:57:49.178Z,28.20
2022-10-31T00:57:59.562Z,27.20
2022-10-31T00:58:09.277Z,26.00
2022-10-31T00:58:19.345Z,24.30
2022-10-31T00:58:29.408Z,23.50
2022-10-31T00:58:39.449Z,24.80
2022-10-31T00:58:49.513Z,24.90
2022-10-31T00:58:59.589Z,27.40
2022-10-31T00:59:09.649Z,27.80
2022-10-31T00:59:19.698Z,29.00
2022-10-31T00:59:29.756Z,28.50
2022-10-31T00:59:39.818Z,26.80
2022-10-31T00:59:49.878Z,26.30
2022-10-31T00:59:59.946Z,26.60
2022-10-31T01:00:10.011Z,26.90
2022-10-31T01:00:20.067Z,26.60
2022-10-31T01:00:30.133Z,25.60
2022-10-31T01:00:40.198Z,25.70
2022-10-31T01:00:51.896Z,25.60
2022-10-31T01:01:00.418Z,27.30
2022-10-31T01:01:10.641Z,25.60
2022-10-31T01:01:20.709Z,26.30
2022-10-31T01:01:30.708Z,24.50
2022-10-31T01:01:40.838Z,25.80
2022-10-31T01:01:50.920Z,26.90
2022-10-31T01:02:00.968Z,28.30
2022-10-31T01:02:11.105Z,26.50
2022-10-31T01:02:21.239Z,26.00
2022-10-31T01:02:31.360Z,23.00
2022-10-31T01:02:41.339Z,23.90
2022-10-31T01:02:51.347Z,25.80
2022-10-31T01:03:01.799Z,27.80
2022-10-31T01:03:11.558Z,33.20
2022-10-31T01:03:21.633Z,31.20
2022-10-31T01:03:31.685Z,32.40
2022-10-31T01:03:41.761Z,26.60
2022-10-31T01:03:51.818Z,29.30
2022-10-31T01:04:01.878Z,28.40
2022-10-31T01:04:11.937Z,26.10
2022-10-31T01:04:22.042Z,24.50
2022-10-31T01:04:32.097Z,25.30
2022-10-31T01:04:42.158Z,28.00
2022-10-31T01:04:52.208Z,26.10
2022-10-31T01:05:02.269Z,25.50
2022-10-31T01:05:12.331Z,25.60
2022-10-31T01:05:22.398Z,26.90
2022-10-31T01:05:32.467Z,25.30
2022-10-31T01:05:42.616Z,26.40
2022-10-31T01:05:52.667Z,26.70
2022-10-31T01:06:02.720Z,29.70
2022-10-31T01:06:12.768Z,26.50
2022-10-31T01:06:22.837Z,26.40
2022-10-31T01:06:32.915Z,26.60
2022-10-31T01:06:42.967Z,27.70
2022-10-31T01:06:53.037Z,28.40
2022-10-31T01:07:03.105Z,26.40
2022-10-31T01:07:13.158Z,25.60
2022-10-31T01:07:23.223Z,25.70
2022-10-31T01:07:33.298Z,25.80
2022-10-31T01:07:43.406Z,26.70
2022-10-31T01:07:53.457Z,26.10
2022-10-31T01:08:03.519Z,28.70
2022-10-31T01:08:13.587Z,28.10
2022-10-31T01:08:23.663Z,27.50
2022-10-31T01:08:33.724Z,26.60
2022-10-31T01:08:43.867Z,27.10
2022-10-31T01:08:53.927Z,28.90
2022-10-31T01:09:04.044Z,29.80
2022-10-31T01:09:14.109Z,28.80
2022-10-31T01:09:24.177Z,28.50
2022-10-31T01:09:34.256Z,26.30
2022-10-31T01:09:44.311Z,27.30
2022-10-31T01:09:54.374Z,27.90
2022-10-31T01:10:04.417Z,29.50
2022-10-31T01:10:14.477Z,26.90
2022-10-31T01:10:24.607Z,26.70
2022-10-31T01:10:34.684Z,26.40
2022-10-31T01:10:44.748Z,26.70
2022-10-31T01:10:54.857Z,26.20
2022-10-31T01:11:04.927Z,27.00
2022-10-31T01:11:14.985Z,32.40
2022-10-31T01:11:25.039Z,34.30
2022-10-31T01:11:35.097Z,32.20
2022-10-31T01:11:45.287Z,28.90
2022-10-31T01:11:55.356Z,29.20
2022-10-31T01:12:05.387Z,29.60
2022-10-31T01:12:15.458Z,28.30
2022-10-31T01:12:25.547Z,31.60
2022-10-31T01:12:35.626Z,32.60
2022-10-31T01:12:45.678Z,32.90
2022-10-31T01:12:55.748Z,29.10
2022-10-31T01:13:05.888Z,28.20
2022-10-31T01:13:16.013Z,28.40
2022-10-31T01:13:26.082Z,24.70
2022-10-31T01:13:36.258Z,29.00
2022-10-31T01:13:46.239Z,31.40
2022-10-31T01:13:56.327Z,33.10
2022-10-31T01:14:06.377Z,32.10
2022-10-31T01:14:16.458Z,30.00
2022-10-31T01:14:26.529Z,28.80
2022-10-31T01:14:36.598Z,28.50
2022-10-31T01:14:46.690Z,29.30
2022-10-31T01:14:56.735Z,29.60
2022-10-31T01:15:06.850Z,28.80
2022-10-31T01:15:16.918Z,25.40
2022-10-31T01:15:26.968Z,24.80
2022-10-31T01:15:37.038Z,26.20
2022-10-31T01:15:47.088Z,29.70
2022-10-31T01:15:57.148Z,31.90
2022-10-31T01:16:07.197Z,31.20
2022-10-31T01:16:17.267Z,29.30
2022-10-31T01:16:27.319Z,27.30
2022-10-31T01:16:37.402Z,25.20
2022-10-31T01:16:47.457Z,26.00
2022-10-31T01:16:57.529Z,25.00
2022-10-31T01:17:07.585Z,25.50
2022-10-31T01:17:17.648Z,25.50
2022-10-31T01:17:27.723Z,25.90
2022-10-31T01:17:37.797Z,26.20
2022-10-31T01:17:47.856Z,27.60
2022-10-31T01:17:58.364Z,26.00
2022-10-31T01:18:08.075Z,29.20
2022-10-31T01:18:18.125Z,27.70
2022-10-31T01:18:28.177Z,29.50
2022-10-31T01:18:38.237Z,27.60
2022-10-31T01:18:48.298Z,27.90
2022-10-31T01:18:58.357Z,27.70
2022-10-31T01:19:08.427Z,29.80
2022-10-31T01:19:18.487Z,29.60
2022-10-31T01:19:28.551Z,28.60
2022-10-31T01:19:38.597Z,25.10
2022-10-31T01:19:48.668Z,27.10
2022-10-31T01:19:58.708Z,28.90
2022-10-31T01:20:08.767Z,30.30
2022-10-31T01:20:18.818Z,27.80
2022-10-31T01:20:28.957Z,27.10
2022-10-31T01:20:39.007Z,25.70
2022-10-31T01:20:49.068Z,26.50
2022-10-31T01:20:59.109Z,25.10
2022-10-31T01:21:09.177Z,25.10
2022-10-31T01:21:19.228Z,23.20
2022-10-31T01:21:29.286Z,23.80
2022-10-31T01:21:39.337Z,24.00
2022-10-31T01:21:49.405Z,26.80
2022-10-31T01:21:59.458Z,26.10
2022-10-31T01:22:09.537Z,26.40
2022-10-31T01:22:19.608Z,24.90
2022-10-31T01:22:29.711Z,24.80
2022-10-31T01:22:39.846Z,25.40
2022-10-31T01:22:49.909Z,27.00
2022-10-31T01:22:59.957Z,26.10
2022-10-31T01:23:10.045Z,25.10
2022-10-31T01:23:20.110Z,23.60
2022-10-31T01:23:30.187Z,26.60
2022-10-31T01:23:40.248Z,27.00
2022-10-31T01:23:50.309Z,26.40
2022-10-31T01:24:00.368Z,24.30
2022-10-31T01:24:10.436Z,25.80
2022-10-31T01:24:20.488Z,26.80
2022-10-31T01:24:30.596Z,28.20
2022-10-31T01:24:40.689Z,26.00
2022-10-31T01:24:50.746Z,25.50
2022-10-31T01:25:00.806Z,24.60
2022-10-31T01:25:10.877Z,24.40
2022-10-31T01:25:20.944Z,24.90
2022-10-31T01:25:31.017Z,26.70
2022-10-31T01:25:41.078Z,29.60
2022-10-31T01:25:51.141Z,31.40
2022-10-31T01:26:01.201Z,31.70
2022-10-31T01:26:11.339Z,31.10
2022-10-31T01:26:21.399Z,28.70
2022-10-31T01:26:31.457Z,29.50
2022-10-31T01:26:41.490Z,26.80
2022-10-31T01:26:51.537Z,26.80
2022-10-31T01:27:01.608Z,23.20
2022-10-31T01:27:11.666Z,25.40
2022-10-31T01:27:21.727Z,26.20
2022-10-31T01:27:31.795Z,27.80
2022-10-31T01:27:41.857Z,28.30
2022-10-31T01:27:51.971Z,27.90
2022-10-31T01:28:02.391Z,29.20
2022-10-31T01:28:12.203Z,27.60
2022-10-31T01:28:22.167Z,26.70
2022-10-31T01:28:32.198Z,23.30
2022-10-31T01:28:42.249Z,29.40
2022-10-31T01:28:52.946Z,32.50
2022-10-31T01:29:02.488Z,32.80
2022-10-31T01:29:12.537Z,28.50
2022-10-31T01:29:22.597Z,27.30
2022-10-31T01:29:32.687Z,30.50
2022-10-31T01:29:42.857Z,30.90
2022-10-31T01:29:52.907Z,31.80
2022-10-31T01:30:02.977Z,32.50
2022-10-31T01:30:13.035Z,29.20
2022-10-31T01:30:23.106Z,28.30
2022-10-31T01:30:33.157Z,24.20
2022-10-31T01:30:43.256Z,26.50
2022-10-31T01:30:53.355Z,25.70
2022-10-31T01:31:03.487Z,27.90
2022-10-31T01:31:13.597Z,28.80
2022-10-31T01:31:23.654Z,27.80
2022-10-31T01:31:33.734Z,25.30
2022-10-31T01:31:43.897Z,22.90
2022-10-31T01:31:53.967Z,23.20
2022-10-31T01:32:04.079Z,22.40
2022-10-31T01:32:14.144Z,22.80
2022-10-31T01:32:24.199Z,22.10
2022-10-31T01:32:34.276Z,22.10
2022-10-31T01:32:44.337Z,25.80
2022-10-31T01:32:54.397Z,26.70
2022-10-31T01:33:04.457Z,26.50
2022-10-31T01:33:14.568Z,23.10
2022-10-31T01:33:24.637Z,23.50
2022-10-31T01:33:34.708Z,26.20
2022-10-31T01:33:44.767Z,31.50
2022-10-31T01:33:54.827Z,32.10
2022-10-31T01:34:04.836Z,30.30
2022-10-31T01:34:14.924Z,25.10
2022-10-31T01:34:24.965Z,25.80
2022-10-31T01:34:35.029Z,28.80
2022-10-31T01:34:45.187Z,30.00
2022-10-31T01:34:55.255Z,28.20
2022-10-31T01:35:05.315Z,27.60
2022-10-31T01:35:15.377Z,28.00
2022-10-31T01:35:25.445Z,28.60
2022-10-31T01:35:35.508Z,32.00
2022-10-31T01:35:45.566Z,29.40
2022-10-31T01:35:55.626Z,27.30
2022-10-31T01:36:05.686Z,23.80
2022-10-31T01:36:15.749Z,26.30
2022-10-31T01:36:25.866Z,27.90
2022-10-31T01:36:35.918Z,29.40
2022-10-31T01:36:45.996Z,30.00
2022-10-31T01:36:56.087Z,28.90
2022-10-31T01:37:06.116Z,27.50
2022-10-31T01:37:16.187Z,27.30
2022-10-31T01:37:26.265Z,26.40
2022-10-31T01:37:36.430Z,26.70
2022-10-31T01:37:46.478Z,25.90
2022-10-31T01:37:56.587Z,26.10
2022-10-31T01:38:06.652Z,24.40
2022-10-31T01:38:16.719Z,25.90
2022-10-31T01:38:26.779Z,29.10
2022-10-31T01:38:36.843Z,30.80
2022-10-31T01:38:46.919Z,28.50
2022-10-31T01:38:57.059Z,27.20
2022-10-31T01:39:07.116Z,24.70
2022-10-31T01:39:17.177Z,25.40
2022-10-31T01:39:27.227Z,25.40
2022-10-31T01:39:37.296Z,26.90
2022-10-31T01:39:47.346Z,27.60
2022-10-31T01:39:57.397Z,28.90
2022-10-31T01:40:07.477Z,28.20
2022-10-31T01:40:17.536Z,27.30
2022-10-31T01:40:27.587Z,26.00
2022-10-31T01:40:37.667Z,26.20
2022-10-31T01:40:47.715Z,25.20
2022-10-31T01:40:57.776Z,24.20
2022-10-31T01:41:07.834Z,23.50
2022-10-31T01:41:17.938Z,23.90
2022-10-31T01:41:27.987Z,25.70
2022-10-31T01:41:38.055Z,26.70
2022-10-31T01:41:48.119Z,26.00
2022-10-31T01:41:58.176Z,23.00
2022-10-31T01:42:08.258Z,22.70
2022-10-31T01:42:18.320Z,23.40
2022-10-31T01:42:28.376Z,23.80
2022-10-31T01:42:38.486Z,24.90
2022-10-31T01:42:48.547Z,24.00
2022-10-31T01:42:58.851Z,23.20
2022-10-31T01:43:08.625Z,22.70
2022-10-31T01:43:18.748Z,23.40
2022-10-31T01:43:28.799Z,27.30
2022-10-31T01:43:38.876Z,27.30
2022-10-31T01:43:48.939Z,27.50
2022-10-31T01:43:58.997Z,27.20
2022-10-31T01:44:09.057Z,27.50
2022-10-31T01:44:19.114Z,26.80
2022-10-31T01:44:29.166Z,26.90
2022-10-31T01:44:39.214Z,26.10
2022-10-31T01:44:49.279Z,28.10
2022-10-31T01:44:59.315Z,26.00
2022-10-31T01:45:09.377Z,26.10
2022-10-31T01:45:19.424Z,23.90
2022-10-31T01:45:29.475Z,26.70
2022-10-31T01:45:39.516Z,26.00
2022-10-31T01:45:49.592Z,30.10
2022-10-31T01:45:59.657Z,32.00
2022-10-31T01:46:09.716Z,33.40
2022-10-31T01:46:19.764Z,31.80
2022-10-31T01:46:29.826Z,27.70
2022-10-31T01:46:39.876Z,29.10
2022-10-31T01:46:49.944Z,31.40
2022-10-31T01:47:00.009Z,33.20
2022-10-31T01:47:10.096Z,30.20
2022-10-31T01:47:20.146Z,26.60
2022-10-31T01:47:30.216Z,28.00
2022-10-31T01:47:40.256Z,27.40
2022-10-31T01:47:50.314Z,27.90
2022-10-31T01:48:00.578Z,25.80
2022-10-31T01:48:10.439Z,26.30
2022-10-31T01:48:20.497Z,27.00
2022-10-31T01:48:30.557Z,26.50
2022-10-31T01:48:43.102Z,27.60
2022-10-31T01:48:50.774Z,26.70
2022-10-31T01:49:00.827Z,25.50
2022-10-31T01:49:10.898Z,25.00
2022-10-31T01:49:20.946Z,27.10
2022-10-31T01:49:31.017Z,28.60
2022-10-31T01:49:41.067Z,29.60
2022-10-31T01:49:51.124Z,26.50
2022-10-31T01:50:01.176Z,27.60
2022-10-31T01:50:11.232Z,27.30
2022-10-31T01:50:21.285Z,30.90
2022-10-31T01:50:31.346Z,27.90
2022-10-31T01:50:41.487Z,27.90
2022-10-31T01:50:51.546Z,25.40
2022-10-31T01:51:01.606Z,25.30
2022-10-31T01:51:11.679Z,25.20
2022-10-31T01:51:21.744Z,24.50
2022-10-31T01:51:31.799Z,26.90
2022-10-31T01:51:41.845Z,26.00
2022-10-31T01:51:51.905Z,24.60
2022-10-31T01:52:01.999Z,22.00
2022-10-31T01:52:12.066Z,21.70
2022-10-31T01:52:22.137Z,23.90
2022-10-31T01:52:32.187Z,26.10
2022-10-31T01:52:42.257Z,27.70
2022-10-31T01:52:52.318Z,26.30
2022-10-31T01:53:02.379Z,24.30
2022-10-31T01:53:12.437Z,25.20
2022-10-31T01:53:25.949Z,26.60
2022-10-31T01:53:32.815Z,27.00
2022-10-31T01:53:42.947Z,25.40
2022-10-31T01:53:52.966Z,27.60
2022-10-31T01:54:03.016Z,28.40
2022-10-31T01:54:13.075Z,28.30
2022-10-31T01:54:23.136Z,28.00
2022-10-31T01:54:33.196Z,27.90
2022-10-31T01:54:43.248Z,28.30
2022-10-31T01:54:53.296Z,26.60
2022-10-31T01:55:03.346Z,27.70
2022-10-31T01:55:13.438Z,32.20
2022-10-31T01:55:26.338Z,31.40
2022-10-31T01:55:33.533Z,27.80
2022-10-31T01:55:43.593Z,26.10
2022-10-31T01:55:53.657Z,27.00
2022-10-31T01:56:03.716Z,25.60
2022-10-31T01:56:13.767Z,23.20
2022-10-31T01:56:23.838Z,23.10
2022-10-31T01:56:33.904Z,28.90
2022-10-31T01:56:44.037Z,29.80
2022-10-31T01:56:54.158Z,32.00
2022-10-31T01:57:04.266Z,29.10
2022-10-31T01:57:14.316Z,27.50
2022-10-31T01:57:24.423Z,23.10
2022-10-31T01:57:34.457Z,21.60
2022-10-31T01:57:44.507Z,24.50
2022-10-31T01:57:54.597Z,26.50
2022-10-31T01:58:04.852Z,27.60
2022-10-31T01:58:14.843Z,25.70
2022-10-31T01:58:24.977Z,25.60
2022-10-31T01:58:34.896Z,25.90
2022-10-31T01:58:45.066Z,26.50
2022-10-31T01:58:55.126Z,25.20
2022-10-31T01:59:05.227Z,25.00
2022-10-31T01:59:15.288Z,25.00
2022-10-31T01:59:25.315Z,25.00
2022-10-31T01:59:35.340Z,24.80
2022-10-31T01:59:45.357Z,25.40
2022-10-31T01:59:55.387Z,26.80
2022-10-31T02:00:05.436Z,25.10
2022-10-31T02:00:15.496Z,25.70
2022-10-31T02:00:25.525Z,25.00
2022-10-31T02:00:35.555Z,26.00
2022-10-31T02:00:45.652Z,23.60
2022-10-31T02:00:55.732Z,24.30
2022-10-31T02:01:07.987Z,25.10
2022-10-31T02:01:15.955Z,27.20
2022-10-31T02:01:26.070Z,25.80
2022-10-31T02:01:36.304Z,26.50
2022-10-31T02:01:46.131Z,24.70
2022-10-31T02:01:56.334Z,25.30
2022-10-31T02:02:06.391Z,26.30
2022-10-31T02:02:16.728Z,28.40
2022-10-31T02:02:26.672Z,28.90
2022-10-31T02:02:36.833Z,27.10
2022-10-31T02:02:46.712Z,25.80
2022-10-31T02:02:57.102Z,24.80
2022-10-31T02:03:06.858Z,23.90
2022-10-31T02:03:16.934Z,24.20
2022-10-31T02:03:26.977Z,26.30
2022-10-31T02:03:37.025Z,27.50
2022-10-31T02:03:47.096Z,27.80
2022-10-31T02:03:57.168Z,27.50
2022-10-31T02:04:07.217Z,29.20
2022-10-31T02:04:17.266Z,28.50
2022-10-31T02:04:27.266Z,26.50
2022-10-31T02:04:37.316Z,25.20
2022-10-31T02:04:47.379Z,25.30
2022-10-31T02:04:57.558Z,23.40
2022-10-31T02:05:07.448Z,26.30
2022-10-31T02:05:17.506Z,27.60
2022-10-31T02:05:27.578Z,29.90
2022-10-31T02:05:37.637Z,28.60
2022-10-31T02:05:47.694Z,29.20
2022-10-31T02:05:57.757Z,29.90
2022-10-31T02:06:07.924Z,27.50
2022-10-31T02:06:17.975Z,25.60
2022-10-31T02:06:28.037Z,25.40
2022-10-31T02:06:38.104Z,26.10
2022-10-31T02:06:48.165Z,28.20
2022-10-31T02:06:58.234Z,26.30
2022-10-31T02:07:08.296Z,26.00
2022-10-31T02:07:18.364Z,24.70
2022-10-31T02:07:28.426Z,25.30
2022-10-31T02:07:38.486Z,24.20
2022-10-31T02:07:48.566Z,25.90
2022-10-31T02:07:58.635Z,24.50
2022-10-31T02:08:08.715Z,24.70
2022-10-31T02:08:18.767Z,24.60
2022-10-31T02:08:28.835Z,23.60
2022-10-31T02:08:38.896Z,23.60
2022-10-31T02:08:48.959Z,22.90
2022-10-31T02:08:59.029Z,24.90
2022-10-31T02:09:09.086Z,25.20
2022-10-31T02:09:19.143Z,26.10
2022-10-31T02:09:29.207Z,26.50
2022-10-31T02:09:39.275Z,26.70
2022-10-31T02:09:49.326Z,24.60